Time;durP1;ratioP1;P1;durP2;ratioP2;P2;SDS_P1;SDS_P2;PMS_P1;PMS_P2;Temp;Humidity;BMP_temperature;BMP_pressure;BME280_temperature;BME280_humidity;BME280_pressure;Samples;Min_cycle;Max_cycle;Signal;HPM_P1;HPM_P2
2022/04/04 00:01:50;;;;;;;8.50;4.63;;;2.00;99.90;;;;;;5010779;28;20169;-56
2022/04/04 00:04:15;;;;;;;10.00;4.55;;;2.00;99.90;;;;;;5013392;28;20033;-56
2022/04/04 00:06:41;;;;;;;9.57;4.97;;;1.90;99.90;;;;;;5012696;28;20022;-58
2022/04/04 00:09:07;;;;;;;8.27;4.60;;;1.70;99.90;;;;;;5011891;28;20461;-55
2022/04/04 00:11:32;;;;;;;11.18;5.63;;;1.80;99.90;;;;;;5013256;28;20025;-54
2022/04/04 00:13:58;;;;;;;12.75;5.18;;;1.80;99.90;;;;;;5013845;28;20476;-58
2022/04/04 00:16:24;;;;;;;7.07;4.75;;;1.70;99.90;;;;;;5013171;28;20041;-59
2022/04/04 00:18:49;;;;;;;12.32;4.63;;;1.90;99.90;;;;;;5013469;28;20049;-57
2022/04/04 00:21:16;;;;;;;7.10;4.03;;;2.00;99.90;;;;;;5013253;28;20080;-58
2022/04/04 00:23:41;;;;;;;9.13;4.60;;;2.00;99.90;;;;;;5013151;28;20030;-57
2022/04/04 00:26:07;;;;;;;8.13;4.80;;;1.80;99.90;;;;;;5013187;28;20030;-59
2022/04/04 00:28:33;;;;;;;8.77;3.83;;;1.70;99.90;;;;;;5013406;28;20091;-58
2022/04/04 00:30:58;;;;;;;8.13;3.92;;;1.70;99.90;;;;;;5012969;28;20056;-57
2022/04/04 00:33:24;;;;;;;6.05;4.22;;;1.80;99.90;;;;;;5011871;28;20026;-59
2022/04/04 00:35:49;;;;;;;6.35;4.05;;;1.90;99.90;;;;;;5011914;28;20029;-59
2022/04/04 00:38:16;;;;;;;7.95;4.47;;;1.80;99.90;;;;;;5011806;28;20029;-56
2022/04/04 00:40:43;;;;;;;9.32;4.68;;;1.80;99.90;;;;;;5012505;28;20022;-58
2022/04/04 00:43:09;;;;;;;8.52;4.88;;;1.70;99.90;;;;;;5011774;28;20026;-58
2022/04/04 00:45:35;;;;;;;8.48;4.25;;;1.70;99.90;;;;;;5013025;28;20026;-59
2022/04/04 00:48:00;;;;;;;8.77;4.53;;;1.60;99.90;;;;;;5012971;28;20029;-59
2022/04/04 00:50:26;;;;;;;12.60;5.57;;;1.60;99.90;;;;;;5011620;28;20113;-59
2022/04/04 00:52:52;;;;;;;8.43;4.65;;;1.60;99.90;;;;;;5013275;28;20384;-58
2022/04/04 00:55:19;;;;;;;7.38;4.72;;;1.60;99.90;;;;;;5012941;28;20022;-59
2022/04/04 00:57:45;;;;;;;7.63;4.13;;;1.60;99.90;;;;;;5013116;28;20084;-59
2022/04/04 01:00:11;;;;;;;11.23;4.82;;;1.50;99.90;;;;;;5015461;28;20056;-58
2022/04/04 01:02:40;;;;;;;8.80;5.57;;;1.60;99.90;;;;;;5017859;28;20038;-59
2022/04/04 01:05:06;;;;;;;11.10;4.53;;;1.50;99.90;;;;;;5015051;28;20099;-59
2022/04/04 01:07:35;;;;;;;6.55;3.95;;;1.50;99.90;;;;;;5015069;28;20026;-59
2022/04/04 01:10:01;;;;;;;7.00;4.57;;;1.50;99.90;;;;;;5001134;28;20026;-59
2022/04/04 01:12:30;;;;;;;7.28;4.68;;;1.50;99.90;;;;;;4996559;28;20025;-59
2022/04/04 01:14:55;;;;;;;7.30;5.22;;;1.50;99.90;;;;;;4996590;28;20029;-58
2022/04/04 01:17:21;;;;;;;9.85;4.82;;;1.50;99.90;;;;;;5011945;28;20030;-58
2022/04/04 01:19:47;;;;;;;9.30;5.45;;;1.50;99.90;;;;;;4996978;28;20385;-57
2022/04/04 01:22:14;;;;;;;11.43;5.55;;;1.50;99.90;;;;;;5011849;28;20023;-58
2022/04/04 01:24:40;;;;;;;10.23;5.70;;;1.50;99.90;;;;;;4995435;28;20034;-58
2022/04/04 01:27:08;;;;;;;10.57;6.00;;;1.40;99.90;;;;;;4996569;28;20022;-58
2022/04/04 01:29:34;;;;;;;7.82;5.55;;;1.40;99.90;;;;;;4996234;28;20038;-58
2022/04/04 01:32:00;;;;;;;8.45;5.65;;;1.40;99.90;;;;;;5012112;28;20026;-58
2022/04/04 01:34:26;;;;;;;12.73;5.93;;;1.40;99.90;;;;;;5011537;28;20053;-59
2022/04/04 01:36:52;;;;;;;8.63;4.95;;;1.40;99.90;;;;;;5011221;28;20031;-56
2022/04/04 01:39:19;;;;;;;10.10;5.97;;;1.50;99.90;;;;;;5011984;28;20085;-59
2022/04/04 01:41:44;;;;;;;11.27;5.63;;;1.50;99.90;;;;;;5011723;28;20030;-60
2022/04/04 01:44:11;;;;;;;12.07;5.80;;;1.40;99.90;;;;;;5011399;28;20049;-58
2022/04/04 01:46:36;;;;;;;9.15;5.88;;;1.30;99.90;;;;;;5011053;28;20046;-59
2022/04/04 01:49:04;;;;;;;12.75;5.88;;;1.20;99.90;;;;;;5011363;28;20072;-56
2022/04/04 01:51:32;;;;;;;10.15;5.93;;;1.30;99.90;;;;;;4994756;28;20026;-57
2022/04/04 01:53:58;;;;;;;9.68;5.68;;;1.40;99.90;;;;;;4995768;28;20014;-57
2022/04/04 01:56:24;;;;;;;11.23;6.25;;;1.40;99.90;;;;;;5011224;28;20029;-58
2022/04/04 01:58:50;;;;;;;9.43;6.53;;;1.30;99.90;;;;;;5010777;28;20033;-55
2022/04/04 02:01:22;;;;;;;10.68;5.68;;;1.30;99.90;;;;;;4995915;28;20034;-57
2022/04/04 02:03:50;;;;;;;12.13;6.50;;;1.20;99.90;;;;;;4994390;28;20034;-58
2022/04/04 02:06:18;;;;;;;12.55;6.32;;;1.10;99.90;;;;;;5010954;28;20042;-59
2022/04/04 02:08:44;;;;;;;9.70;5.75;;;1.10;99.90;;;;;;5011097;28;20144;-59
2022/04/04 02:11:11;;;;;;;10.52;6.35;;;1.20;99.90;;;;;;4994428;28;20492;-57
2022/04/04 02:13:36;;;;;;;13.65;5.93;;;1.20;99.90;;;;;;4994479;28;20492;-59
2022/04/04 02:16:03;;;;;;;9.90;6.07;;;1.20;99.90;;;;;;4995332;28;20026;-58
2022/04/04 02:18:30;;;;;;;9.27;5.90;;;1.20;99.90;;;;;;4995344;28;20540;-59
2022/04/04 02:20:56;;;;;;;11.77;6.40;;;1.20;99.90;;;;;;4993961;28;20030;-58
2022/04/04 02:23:24;;;;;;;11.23;6.15;;;1.20;99.90;;;;;;4994075;28;20050;-58
2022/04/04 02:25:51;;;;;;;11.13;6.15;;;1.20;99.90;;;;;;4993997;28;20096;-57
2022/04/04 02:28:17;;;;;;;10.65;6.22;;;1.20;99.90;;;;;;4995185;28;20057;-59
2022/04/04 02:30:45;;;;;;;12.02;6.90;;;1.10;99.90;;;;;;4993705;28;20030;-59
2022/04/04 02:33:15;;;;;;;14.48;6.90;;;1.00;99.90;;;;;;4994589;28;20027;-57
2022/04/04 02:35:41;;;;;;;11.13;6.32;;;0.80;99.90;;;;;;4995348;28;20117;-58
2022/04/04 02:38:07;;;;;;;12.05;6.47;;;0.80;99.90;;;;;;4994043;28;20473;-58
2022/04/04 02:40:33;;;;;;;10.75;6.80;;;0.80;99.90;;;;;;4994914;28;20031;-59
2022/04/04 02:43:00;;;;;;;10.88;6.38;;;0.90;99.90;;;;;;4993998;28;20036;-57
2022/04/04 02:45:26;;;;;;;12.50;5.97;;;0.90;99.90;;;;;;4993655;28;20026;-58
2022/04/04 02:47:52;;;;;;;12.05;6.80;;;0.90;99.90;;;;;;4994764;28;20065;-57
2022/04/04 02:50:18;;;;;;;10.98;6.47;;;1.00;99.90;;;;;;4993466;28;20066;-59
2022/04/04 02:52:44;;;;;;;8.32;5.88;;;1.10;99.90;;;;;;4993103;28;20074;-59
2022/04/04 02:57:55;;;;;;;12.93;6.35;;;1.10;99.90;;;;;;4994866;28;20081;-59
2022/04/04 03:00:23;;;;;;;13.38;7.78;;;1.10;99.90;;;;;;4994488;28;20041;-60
2022/04/04 03:02:49;;;;;;;10.80;6.47;;;1.10;99.90;;;;;;4994573;28;20058;-58
2022/04/04 03:05:15;;;;;;;15.90;8.55;;;1.10;99.90;;;;;;4993269;28;20058;-58
2022/04/04 03:07:41;;;;;;;13.48;7.53;;;1.10;99.90;;;;;;4994383;28;20061;-58
2022/04/04 03:10:08;;;;;;;11.00;6.50;;;1.10;99.90;;;;;;4995596;28;20054;-56
2022/04/04 03:12:41;;;;;;;12.15;6.70;;;1.10;99.90;;;;;;5012961;28;20026;-60
2022/04/04 03:15:08;;;;;;;10.27;6.45;;;1.10;99.90;;;;;;5013655;28;20026;-59
2022/04/04 03:17:34;;;;;;;11.60;6.38;;;1.00;99.90;;;;;;5012936;28;20076;-57
2022/04/04 03:20:00;;;;;;;11.55;6.88;;;1.00;99.90;;;;;;5013902;28;20018;-59
2022/04/04 03:22:26;;;;;;;10.45;6.85;;;1.00;99.90;;;;;;5012662;28;20041;-57
2022/04/04 03:24:52;;;;;;;16.45;7.03;;;1.20;99.90;;;;;;5012564;28;20036;-59
2022/04/04 03:27:18;;;;;;;8.13;6.00;;;1.30;99.90;;;;;;4999396;28;20061;-57
2022/04/04 03:29:44;;;;;;;11.55;6.72;;;1.40;99.90;;;;;;5009699;28;20054;-56
2022/04/04 03:32:10;;;;;;;13.20;7.43;;;1.40;99.90;;;;;;5009161;28;20076;-59
2022/04/04 03:34:35;;;;;;;13.02;6.78;;;1.40;99.90;;;;;;5009219;28;20030;-58
2022/04/04 03:37:01;;;;;;;9.20;6.13;;;1.60;99.90;;;;;;5009473;28;20023;-57
2022/04/04 03:39:27;;;;;;;17.40;7.97;;;1.50;99.90;;;;;;4994015;28;20098;-56
2022/04/04 03:41:59;;;;;;;49.05;19.63;;;1.40;99.90;;;;;;5012357;28;20022;-57
2022/04/04 03:44:25;;;;;;;27.23;12.77;;;1.40;99.90;;;;;;5012701;28;20092;-59
2022/04/04 03:46:51;;;;;;;23.27;10.52;;;1.40;99.90;;;;;;5012283;28;20472;-58
2022/04/04 03:49:16;;;;;;;16.63;9.25;;;1.40;99.90;;;;;;5012557;28;20029;-57
2022/04/04 03:51:42;;;;;;;14.93;6.57;;;1.30;99.90;;;;;;5013327;28;20443;-57
2022/04/04 03:54:07;;;;;;;13.40;7.85;;;1.40;99.90;;;;;;5012547;28;20025;-59
2022/04/04 03:56:33;;;;;;;13.95;8.18;;;1.40;99.90;;;;;;5012517;28;20026;-59
2022/04/04 03:58:59;;;;;;;9.32;6.30;;;1.40;99.90;;;;;;5002976;28;20109;-59
2022/04/04 04:01:27;;;;;;;12.32;6.47;;;1.50;99.90;;;;;;4992437;28;20034;-58
2022/04/04 04:03:53;;;;;;;12.40;8.05;;;1.40;99.90;;;;;;4993851;28;20033;-58
2022/04/04 04:06:18;;;;;;;13.07;7.93;;;1.30;99.90;;;;;;5009175;28;20074;-57
2022/04/04 04:08:46;;;;;;;13.80;7.45;;;1.20;99.90;;;;;;4993752;28;20053;-59
2022/04/04 04:11:13;;;;;;;14.15;7.57;;;1.10;99.90;;;;;;4993821;28;20038;-55
2022/04/04 04:13:41;;;;;;;12.98;6.82;;;1.10;99.90;;;;;;4997141;28;20049;-60
2022/04/04 04:16:09;;;;;;;12.45;6.20;;;1.00;99.90;;;;;;5011973;28;20094;-59
2022/04/04 04:18:35;;;;;;;13.48;6.68;;;1.00;99.90;;;;;;5011990;28;20050;-59
2022/04/04 04:21:02;;;;;;;12.45;7.70;;;1.10;99.90;;;;;;5011927;28;20026;-57
2022/04/04 04:23:28;;;;;;;13.10;7.45;;;1.10;99.90;;;;;;5011886;28;20029;-56
2022/04/04 04:25:53;;;;;;;15.05;7.80;;;1.10;99.90;;;;;;5012259;28;20029;-57
2022/04/04 04:28:19;;;;;;;17.50;7.82;;;1.10;99.90;;;;;;5012216;28;20030;-58
2022/04/04 04:30:45;;;;;;;18.45;9.55;;;1.00;99.90;;;;;;4997109;28;20030;-56
2022/04/04 04:33:11;;;;;;;13.73;8.07;;;1.00;99.90;;;;;;5009697;28;20098;-58
2022/04/04 04:35:36;;;;;;;17.15;8.75;;;1.00;99.90;;;;;;5012449;28;20095;-59
2022/04/04 04:38:03;;;;;;;14.32;7.88;;;0.90;99.90;;;;;;5012443;28;20029;-57
2022/04/04 04:40:28;;;;;;;16.38;8.10;;;1.00;99.90;;;;;;5012246;28;20030;-58
2022/04/04 04:42:56;;;;;;;16.60;8.32;;;1.00;99.90;;;;;;4997412;28;20026;-59
2022/04/04 04:45:21;;;;;;;18.55;8.63;;;1.00;99.90;;;;;;5008762;28;20134;-57
2022/04/04 04:47:48;;;;;;;16.92;8.13;;;1.00;99.90;;;;;;4996117;28;20062;-57
2022/04/04 04:50:15;;;;;;;15.75;8.32;;;1.00;99.90;;;;;;4996056;28;20027;-59
2022/04/04 04:52:42;;;;;;;18.42;9.25;;;0.90;99.90;;;;;;4995673;28;20030;-55
2022/04/04 04:55:08;;;;;;;16.27;8.68;;;0.80;99.90;;;;;;4997281;28;20038;-57
2022/04/04 04:57:34;;;;;;;16.70;9.13;;;0.80;99.90;;;;;;4997277;28;20493;-59
2022/04/04 05:00:03;;;;;;;16.38;9.50;;;0.70;99.90;;;;;;4995688;28;20109;-57
2022/04/04 05:02:29;;;;;;;18.50;9.60;;;0.80;99.90;;;;;;5012539;28;20037;-58
2022/04/04 05:04:54;;;;;;;23.52;10.68;;;0.80;99.90;;;;;;5016422;28;20018;-58
2022/04/04 05:07:20;;;;;;;21.23;10.18;;;0.80;99.90;;;;;;5015373;28;20380;-59
2022/04/04 05:09:46;;;;;;;23.20;11.07;;;0.80;99.90;;;;;;5015215;28;20026;-59
2022/04/04 05:12:11;;;;;;;27.05;12.27;;;0.90;99.90;;;;;;5015179;28;20026;-58
2022/04/04 05:14:40;;;;;;;30.88;13.05;;;0.80;99.90;;;;;;5016551;28;20014;-57
2022/04/04 05:17:05;;;;;;;23.98;12.27;;;0.80;99.90;;;;;;5015121;28;20028;-57
2022/04/04 05:19:31;;;;;;;18.50;10.18;;;0.90;99.90;;;;;;5014883;28;20116;-57
2022/04/04 05:21:57;;;;;;;21.52;9.65;;;1.00;99.90;;;;;;5015230;28;20045;-57
2022/04/04 05:24:23;;;;;;;26.27;14.10;;;1.20;99.90;;;;;;5015114;28;20384;-58
2022/04/04 05:26:49;;;;;;;22.95;11.38;;;1.30;99.90;;;;;;5014687;28;20112;-59
2022/04/04 05:29:17;;;;;;;18.35;9.98;;;1.50;99.90;;;;;;5014962;28;20018;-59
2022/04/04 05:31:45;;;;;;;29.40;12.68;;;1.60;99.90;;;;;;5014438;28;20026;-57
2022/04/04 05:34:11;;;;;;;19.05;10.82;;;1.70;99.90;;;;;;5014504;28;20116;-59
2022/04/04 05:36:37;;;;;;;22.65;11.40;;;1.80;99.90;;;;;;5014069;28;20018;-57
2022/04/04 05:39:05;;;;;;;17.95;10.30;;;1.80;99.90;;;;;;5014833;28;20050;-57
2022/04/04 05:41:30;;;;;;;19.63;9.82;;;1.80;99.90;;;;;;5014996;28;20057;-58
2022/04/04 05:43:57;;;;;;;16.92;9.85;;;2.00;99.90;;;;;;5015190;28;20060;-58
2022/04/04 05:46:23;;;;;;;16.98;9.80;;;2.10;99.90;;;;;;5014396;28;20026;-58
2022/04/04 05:48:48;;;;;;;17.30;9.27;;;2.10;99.90;;;;;;5015816;28;20148;-56
2022/04/04 05:51:16;;;;;;;17.45;9.10;;;2.20;99.90;;;;;;5014004;28;20108;-58
2022/04/04 05:53:42;;;;;;;18.35;9.20;;;2.40;99.90;;;;;;5000548;28;20029;-53
2022/04/04 05:56:08;;;;;;;18.95;9.68;;;2.50;99.90;;;;;;4995882;28;20101;-58
2022/04/04 05:58:36;;;;;;;17.50;8.88;;;2.60;99.90;;;;;;4994806;28;20124;-59
2022/04/04 06:01:02;;;;;;;12.63;8.02;;;2.90;99.90;;;;;;4995156;28;20067;-59
2022/04/04 06:03:28;;;;;;;9.02;6.18;;;3.30;99.90;;;;;;4994470;28;20026;-58
2022/04/04 06:05:54;;;;;;;7.85;4.90;;;3.80;99.90;;;;;;4995886;28;20037;-58
2022/04/04 06:08:50;;;;;;;10.98;6.38;;;4.50;99.90;;;;;;4999623;28;20021;-59
2022/04/04 06:11:15;;;;;;;12.10;5.65;;;5.30;99.90;;;;;;5014435;28;20037;-58
2022/04/04 06:13:41;;;;;;;11.35;5.20;;;5.50;99.90;;;;;;5013911;28;20022;-58
2022/04/04 06:16:08;;;;;;;10.63;5.68;;;5.70;99.90;;;;;;5015596;28;20073;-58
2022/04/04 06:18:34;;;;;;;10.00;6.20;;;5.80;99.90;;;;;;5015481;28;20018;-58
2022/04/04 06:21:02;;;;;;;11.93;6.53;;;5.80;99.90;;;;;;5014865;28;20104;-58
2022/04/04 06:23:28;;;;;;;9.23;5.60;;;5.90;99.90;;;;;;5013695;28;20033;-57
2022/04/04 06:25:54;;;;;;;9.30;6.47;;;6.30;99.90;;;;;;5014282;28;20053;-59
2022/04/04 06:28:20;;;;;;;9.23;6.47;;;7.00;99.90;;;;;;5015166;28;20362;-59
2022/04/04 06:30:45;;;;;;;8.57;6.57;;;7.60;99.90;;;;;;5014184;28;20040;-55
2022/04/04 06:33:11;;;;;;;11.57;6.70;;;8.20;99.90;;;;;;5013784;28;20029;-57
2022/04/04 06:35:37;;;;;;;8.98;5.80;;;8.60;99.90;;;;;;5013555;28;20037;-57
2022/04/04 06:38:03;;;;;;;7.10;6.32;;;9.00;99.90;;;;;;5013339;28;20097;-64
2022/04/04 06:40:30;;;;;;;10.15;6.90;;;9.40;99.90;;;;;;5013364;28;20121;-67
2022/04/04 06:42:57;;;;;;;11.65;7.40;;;9.50;99.90;;;;;;5013580;28;20113;-67
2022/04/04 06:45:22;;;;;;;11.75;7.30;;;9.60;99.90;;;;;;5013268;28;20048;-62
2022/04/04 06:48:16;;;;;;;10.23;6.57;;;9.60;99.90;;;;;;5013132;28;20125;-61
2022/04/04 06:50:42;;;;;;;11.60;7.85;;;9.80;99.90;;;;;;5005496;28;20029;-61
2022/04/04 06:53:09;;;;;;;9.43;7.30;;;10.00;99.90;;;;;;5014388;28;20370;-61
2022/04/04 06:55:34;;;;;;;9.13;7.47;;;10.40;99.90;;;;;;5013847;28;20018;-61
2022/04/04 06:58:00;;;;;;;9.70;6.53;;;10.40;99.90;;;;;;5014578;28;20021;-61
2022/04/04 07:00:26;;;;;;;9.27;7.45;;;10.50;99.90;;;;;;5012987;28;20124;-62
2022/04/04 07:02:53;;;;;;;11.02;7.78;;;10.60;99.90;;;;;;5013397;28;20037;-61
2022/04/04 07:05:18;;;;;;;8.77;7.57;;;11.00;99.90;;;;;;5012017;28;20037;-64
2022/04/04 07:07:44;;;;;;;9.05;6.95;;;11.10;99.90;;;;;;5017171;28;20026;-61
2022/04/04 07:10:14;;;;;;;10.43;7.28;;;11.20;99.90;;;;;;5012189;28;20026;-61
2022/04/04 07:12:43;;;;;;;11.25;6.97;;;11.60;99.90;;;;;;5011926;28;20056;-61
2022/04/04 07:15:12;;;;;;;7.85;7.03;;;11.90;99.90;;;;;;5012342;28;20022;-62
2022/04/04 07:17:40;;;;;;;9.05;7.00;;;11.90;99.90;;;;;;5011971;28;20109;-61
2022/04/04 07:20:06;;;;;;;9.93;7.05;;;11.90;99.90;;;;;;5013147;28;20021;-61
2022/04/04 07:22:40;;;;;;;8.88;7.97;;;11.80;99.90;;;;;;5013363;28;20030;-61
2022/04/04 07:25:10;;;;;;;12.18;7.32;;;11.40;99.90;;;;;;5013067;28;20029;-61
2022/04/04 07:27:54;;;;;;;9.25;6.80;;;11.10;99.90;;;;;;5011727;28;20021;-62
2022/04/04 07:30:23;;;;;;;10.82;7.13;;;11.00;99.90;;;;;;5003788;28;20041;-59
2022/04/04 07:32:50;;;;;;;7.90;7.10;;;10.90;99.90;;;;;;5006703;28;20045;-66
2022/04/04 07:35:17;;;;;;;9.70;6.95;;;10.90;99.90;;;;;;4997653;28;20022;-67
2022/04/04 07:37:50;;;;;;;10.52;7.18;;;10.80;99.90;;;;;;5011561;28;20028;-67
2022/04/04 07:40:17;;;;;;;9.85;7.93;;;10.90;99.90;;;;;;5013023;28;20021;-67
2022/04/04 07:42:45;;;;;;;7.88;6.60;;;11.30;99.90;;;;;;5011559;28;20022;-67
2022/04/04 07:45:43;;;;;;;8.50;7.10;;;12.00;99.30;;;;;;5011756;28;20080;-67
2022/04/04 07:48:10;;;;;;;9.40;7.10;;;12.30;98.40;;;;;;5012925;28;20041;-66
2022/04/04 07:50:36;;;;;;;8.77;7.30;;;12.60;98.40;;;;;;5011362;28;20030;-66
2022/04/04 07:53:16;;;;;;;8.60;6.93;;;12.80;96.30;;;;;;5011602;28;20022;-66
2022/04/04 07:55:42;;;;;;;8.57;7.05;;;13.10;95.60;;;;;;5012094;28;20022;-66
2022/04/04 07:58:09;;;;;;;8.65;6.85;;;13.70;94.20;;;;;;5012815;28;20022;-66
2022/04/04 08:00:35;;;;;;;10.38;6.70;;;14.50;93.60;;;;;;4971934;28;1136310;-67
2022/04/04 08:03:01;;;;;;;8.77;7.32;;;15.20;92.10;;;;;;5012339;28;20032;-63
2022/04/04 08:05:26;;;;;;;7.30;6.60;;;16.00;90.60;;;;;;5012206;28;20473;-63
2022/04/04 08:07:54;;;;;;;9.25;6.68;;;16.70;86.00;;;;;;5012927;28;20057;-66
2022/04/04 08:10:21;;;;;;;7.18;6.25;;;17.20;84.80;;;;;;5017556;28;20030;-66
2022/04/04 08:13:05;;;;;;;6.57;5.97;;;17.30;82.50;;;;;;5016103;28;20022;-66
2022/04/04 08:15:31;;;;;;;7.45;6.18;;;17.30;80.40;;;;;;5016604;28;20098;-65
2022/04/04 08:17:57;;;;;;;8.07;5.93;;;17.20;79.30;;;;;;5016062;28;20033;-64
2022/04/04 08:20:57;;;;;;;8.05;5.82;;;17.10;77.60;;;;;;5015980;28;20056;-65
2022/04/04 08:23:27;;;;;;;9.35;6.32;;;17.40;76.60;;;;;;5016534;28;20033;-64
2022/04/04 08:25:52;;;;;;;6.65;5.93;;;17.40;76.20;;;;;;5016030;28;20030;-65
2022/04/04 08:28:34;;;;;;;7.28;5.28;;;17.60;76.20;;;;;;5015901;28;20496;-67
2022/04/04 08:31:00;;;;;;;6.53;5.28;;;17.70;73.30;;;;;;5016171;28;20026;-65
2022/04/04 08:37:17;;;;;;;6.15;5.25;;;17.90;72.00;;;;;;5017282;28;20110;-62
2022/04/04 08:39:47;;;;;;;5.82;5.15;;;17.70;72.50;;;;;;5016818;28;20086;-65
2022/04/04 08:42:27;;;;;;;5.88;5.28;;;17.40;73.10;;;;;;5016796;28;20026;-66
2022/04/04 08:44:55;;;;;;;5.70;4.65;;;17.10;71.40;;;;;;5016248;28;20033;-65
2022/04/04 08:47:22;;;;;;;5.25;4.75;;;17.10;72.80;;;;;;5015909;28;20104;-66
2022/04/04 08:49:50;;;;;;;8.98;5.65;;;16.80;72.20;;;;;;5015330;28;20030;-66
2022/04/04 08:52:16;;;;;;;8.90;5.50;;;16.30;72.00;;;;;;5016591;28;20053;-66
2022/04/04 08:54:42;;;;;;;7.55;4.88;;;16.40;73.50;;;;;;5015665;28;20113;-65
2022/04/04 08:57:13;;;;;;;6.25;4.82;;;16.50;74.60;;;;;;5016603;28;20053;-67
2022/04/04 08:59:38;;;;;;;5.07;4.30;;;16.90;71.60;;;;;;5015411;28;20025;-69
2022/04/04 09:02:05;;;;;;;6.75;4.55;;;16.90;74.60;;;;;;5016834;28;20037;-69
2022/04/04 09:04:33;;;;;;;5.30;4.80;;;16.70;72.00;;;;;;5015118;28;20122;-66
2022/04/04 09:07:07;;;;;;;5.47;4.43;;;16.40;73.10;;;;;;5016585;28;20029;-66
2022/04/04 09:09:50;;;;;;;6.10;4.93;;;16.20;74.10;;;;;;5015594;28;20025;-64
2022/04/04 09:12:19;;;;;;;5.10;4.60;;;15.50;74.00;;;;;;5014990;28;20022;-65
2022/04/04 09:14:48;;;;;;;6.80;3.63;;;15.10;74.80;;;;;;5015037;28;20109;-67
2022/04/04 09:17:16;;;;;;;4.40;3.60;;;14.70;74.90;;;;;;5016416;28;20388;-64
2022/04/04 09:19:42;;;;;;;5.20;3.40;;;14.40;73.90;;;;;;5014433;28;20045;-64
2022/04/04 09:22:13;;;;;;;3.80;3.40;;;14.00;76.90;;;;;;5015055;28;20053;-64
2022/04/04 09:24:59;;;;;;;3.70;3.10;;;13.80;74.50;;;;;;5016000;28;20033;-63
2022/04/04 09:27:29;;;;;;;4.72;3.33;;;13.60;78.80;;;;;;5016424;28;20156;-66
2022/04/04 09:30:06;;;;;;;5.20;3.47;;;13.40;76.50;;;;;;5014626;28;20080;-65
2022/04/04 09:32:55;;;;;;;5.03;3.45;;;13.20;78.40;;;;;;5015822;28;20037;-64
2022/04/04 09:35:28;;;;;;;4.18;3.00;;;13.10;75.60;;;;;;5015820;28;20022;-64
2022/04/04 09:37:53;;;;;;;5.45;3.30;;;12.90;78.70;;;;;;5014640;28;20026;-63
2022/04/04 09:41:14;;;;;;;5.07;3.20;;;12.80;79.50;;;;;;5014774;28;20095;-63
2022/04/04 09:43:54;;;;;;;5.57;3.30;;;12.50;78.00;;;;;;4994951;28;20035;-64
2022/04/04 09:46:39;;;;;;;5.72;3.28;;;12.30;79.60;;;;;;5013916;28;20029;-61
2022/04/04 09:49:16;;;;;;;6.28;3.35;;;12.20;80.80;;;;;;5015552;28;20026;-61
2022/04/04 09:51:56;;;;;;;4.47;2.92;;;12.20;78.60;;;;;;5014253;28;20038;-60
2022/04/04 09:54:24;;;;;;;4.93;2.83;;;12.20;80.10;;;;;;5014374;28;20022;-62
2022/04/04 09:56:56;;;;;;;3.45;2.70;;;12.20;81.00;;;;;;5014132;28;20026;-64
2022/04/04 09:59:21;;;;;;;;;;;12.00;79.30;;;;;;5015856;28;20021;-64
2022/04/04 10:01:48;;;;;;;3.95;2.90;;;11.80;80.90;;;;;;5030423;28;19917;-64
2022/04/04 10:04:14;;;;;;;6.30;3.05;;;11.80;81.80;;;;;;5015251;28;20037;-63
2022/04/04 10:06:47;;;;;;;6.00;3.10;;;11.60;81.30;;;;;;5014056;28;20030;-63
2022/04/04 10:09:13;;;;;;;4.95;3.60;;;11.80;82.70;;;;;;5015273;28;20022;-61
2022/04/04 10:11:40;;;;;;;6.13;3.00;;;12.00;82.10;;;;;;5013702;28;20079;-61
2022/04/04 10:14:06;;;;;;;9.52;3.63;;;12.10;83.90;;;;;;5015092;28;20017;-62
2022/04/04 10:16:33;;;;;;;10.43;3.25;;;12.30;83.40;;;;;;5015004;28;20099;-62
2022/04/04 10:19:00;;;;;;;5.15;3.08;;;12.50;80.40;;;;;;5015622;28;20083;-61
2022/04/04 10:21:26;;;;;;;4.10;3.00;;;12.70;82.40;;;;;;5013638;28;20551;-62
2022/04/04 10:23:57;;;;;;;6.15;3.30;;;12.60;80.50;;;;;;5014887;28;20026;-61
2022/04/04 10:26:28;;;;;;;3.80;2.95;;;12.60;81.00;;;;;;5013628;28;20099;-62
2022/04/04 10:29:06;;;;;;;4.35;3.33;;;12.70;80.90;;;;;;5015230;28;20449;-62
2022/04/04 10:31:46;;;;;;;4.55;2.83;;;12.80;81.10;;;;;;5014035;28;20030;-62
2022/04/04 10:34:17;;;;;;;5.50;3.38;;;12.70;80.80;;;;;;5015090;28;20033;-64
2022/04/04 10:36:58;;;;;;;4.13;2.97;;;12.50;80.30;;;;;;5014061;28;20026;-64
2022/04/04 10:39:44;;;;;;;3.38;3.05;;;12.40;79.50;;;;;;5015190;28;20102;-64
2022/04/04 10:42:36;;;;;;;3.47;3.00;;;12.20;81.10;;;;;;5015160;28;20080;-64
2022/04/04 10:45:09;;;;;;;5.38;2.70;;;12.20;82.50;;;;;;5004894;28;20030;-64
2022/04/04 10:47:37;;;;;;;3.97;3.08;;;12.30;79.50;;;;;;5013485;28;20026;-64
2022/04/04 10:50:29;;;;;;;3.83;3.20;;;12.30;81.50;;;;;;5014378;28;20031;-64
2022/04/04 10:52:59;;;;;;;4.55;3.33;;;12.30;80.40;;;;;;5014719;28;20014;-64
2022/04/04 10:55:36;;;;;;;4.05;3.45;;;12.20;79.90;;;;;;5014460;28;20029;-64
2022/04/04 10:58:13;;;;;;;3.83;3.17;;;12.20;80.40;;;;;;5009772;28;20431;-64
2022/04/04 11:00:54;;;;;;;3.28;2.97;;;12.10;81.70;;;;;;5009595;28;20078;-64
2022/04/04 11:03:46;;;;;;;4.97;3.40;;;12.10;82.40;;;;;;4995008;28;20109;-65
2022/04/04 11:09:19;;;;;;;3.95;3.30;;;12.20;80.50;;;;;;4994888;28;20088;-63
2022/04/04 11:11:47;;;;;;;4.35;3.30;;;12.40;80.90;;;;;;4994590;28;20022;-66
2022/04/04 11:14:17;;;;;;;4.35;2.97;;;12.40;79.50;;;;;;4994554;28;20018;-66
2022/04/04 11:17:17;;;;;;;6.53;4.00;;;12.40;79.90;;;;;;4993315;28;20027;-64
2022/04/04 11:19:48;;;;;;;4.00;3.30;;;12.40;79.60;;;;;;4994743;28;20022;-65
2022/04/04 11:22:18;;;;;;;4.72;3.13;;;12.40;81.40;;;;;;5010307;28;20058;-64
2022/04/04 11:24:51;;;;;;;4.83;3.80;;;12.40;80.10;;;;;;4994261;28;20434;-64
2022/04/04 11:27:17;;;;;;;6.57;3.75;;;12.50;79.50;;;;;;4994366;28;20018;-64
2022/04/04 11:29:58;;;;;;;7.22;3.20;;;12.40;79.40;;;;;;4992968;28;20114;-64
2022/04/04 11:32:28;;;;;;;5.35;3.65;;;12.40;79.70;;;;;;4993049;28;20026;-65
2022/04/04 11:34:57;;;;;;;5.65;3.70;;;12.30;78.50;;;;;;4993032;28;20034;-66
2022/04/04 11:37:26;;;;;;;5.32;3.75;;;12.20;82.00;;;;;;4994480;28;20021;-63
2022/04/04 11:39:59;;;;;;;3.85;3.38;;;12.10;79.80;;;;;;4994180;28;20101;-64
2022/04/04 11:42:30;;;;;;;5.47;3.40;;;12.10;81.90;;;;;;4992708;28;20027;-64
2022/04/04 11:45:03;;;;;;;;;;;12.00;81.60;;;;;;4994132;28;20026;-63
2022/04/04 11:47:30;;;;;;;5.38;3.70;;;12.00;81.60;;;;;;4994025;28;19906;-66
2022/04/04 11:50:01;;;;;;;6.72;3.20;;;12.10;82.80;;;;;;4992737;28;20481;-65
2022/04/04 11:52:54;;;;;;;4.37;3.10;;;12.10;82.90;;;;;;4992755;28;20041;-63
2022/04/04 11:55:22;;;;;;;5.57;3.55;;;12.10;81.70;;;;;;4993284;28;20027;-68
2022/04/04 11:57:49;;;;;;;5.72;3.72;;;12.00;81.60;;;;;;4992554;28;20030;-65
2022/04/04 12:00:23;;;;;;;3.60;3.13;;;12.10;82.30;;;;;;4993060;28;20030;-65
2022/04/04 12:02:49;;;;;;;4.10;3.50;;;12.00;81.80;;;;;;4992639;28;20046;-63
2022/04/04 12:05:17;;;;;;;6.63;3.38;;;12.00;80.90;;;;;;4993440;28;20031;-65
2022/04/04 12:07:43;;;;;;;4.90;3.35;;;12.00;82.10;;;;;;4993615;28;20027;-69
2022/04/04 12:10:10;;;;;;;5.30;3.40;;;11.90;82.30;;;;;;4993775;28;20034;-67
2022/04/04 12:12:36;;;;;;;6.55;3.78;;;11.90;81.50;;;;;;4993793;28;20385;-68
2022/04/04 12:15:02;;;;;;;4.97;3.72;;;11.80;81.80;;;;;;4992503;28;20081;-68
2022/04/04 12:17:28;;;;;;;4.57;3.50;;;11.90;83.20;;;;;;4994101;28;20026;-68
2022/04/04 12:19:54;;;;;;;5.95;3.72;;;11.90;82.90;;;;;;4992662;28;20072;-67
2022/04/04 12:25:10;;;;;;;6.25;3.55;;;11.90;85.00;;;;;;4994261;28;20065;-66
2022/04/04 12:27:54;;;;;;;5.13;3.88;;;11.80;85.30;;;;;;4992940;28;20113;-68
2022/04/04 12:30:28;;;;;;;5.05;3.55;;;11.80;84.50;;;;;;4992803;28;20061;-65
2022/04/04 12:33:09;;;;;;;7.75;3.80;;;11.80;85.60;;;;;;4993602;28;20053;-66
2022/04/04 12:35:43;;;;;;;7.60;4.40;;;11.60;86.10;;;;;;4993865;28;20027;-63
2022/04/04 12:38:10;;;;;;;5.65;4.25;;;11.50;87.00;;;;;;4993625;28;20019;-63
2022/04/04 12:40:38;;;;;;;5.68;4.22;;;11.50;86.20;;;;;;4992986;28;20030;-64
2022/04/04 12:43:08;;;;;;;4.70;3.75;;;11.50;87.30;;;;;;4992870;28;20516;-64
2022/04/04 12:45:34;;;;;;;4.47;3.72;;;11.60;85.60;;;;;;4992542;28;20522;-64
2022/04/04 12:48:10;;;;;;;4.53;3.53;;;11.60;86.30;;;;;;4992279;28;20172;-64
2022/04/04 12:50:46;;;;;;;6.15;4.65;;;11.40;85.10;;;;;;4992171;28;20098;-63
2022/04/04 12:53:12;;;;;;;5.70;3.72;;;11.40;86.00;;;;;;4992407;28;20026;-64
2022/04/04 12:55:40;;;;;;;4.30;3.42;;;11.40;86.20;;;;;;4996795;28;20031;-62
2022/04/04 12:58:19;;;;;;;6.32;3.75;;;11.40;89.00;;;;;;4995675;28;20018;-66
2022/04/04 13:00:45;;;;;;;5.43;3.90;;;11.40;86.90;;;;;;4995711;28;20065;-66
2022/04/04 13:03:24;;;;;;;6.00;3.70;;;11.40;87.10;;;;;;4996978;28;20113;-61
2022/04/04 13:05:52;;;;;;;11.70;4.30;;;11.30;86.10;;;;;;4997068;28;20034;-63
2022/04/04 13:08:24;;;;;;;8.38;3.78;;;11.30;87.20;;;;;;4996973;28;20022;-63
2022/04/04 13:11:00;;;;;;;;;;;11.30;88.40;;;;;;4997272;28;20030;-62